LJPO weather

Postojna Airfield
Postojna, Postojna, Slovenia

Public forecast

Using degrees Celsius for public forecast. Weather courtesy of forecast.io.

METAR (pilot weather report)

Closest report is Portoroz Airport, 29.5 nm (54.7 km) SW. Retrieved 2019/07/19 16:30 UTC (0 seconds ago):

LJPZ 191630Z 25003KT 210V290 CAVOK 29/16 Q1015

TAF (pilot weather forecast)

Closest forecast is Ljubljana Jože Pučnik Airport, 30.4 nm (56.2 km) NNE. Retrieved 2019/07/19 15:04 UTC (1 hour ago):

TAF LJLJ 191400Z 1915/2015 12005KT 9999 FEW050 PROB30 TEMPO 1915/1918 VRB10KT -SHRA SCT050TCU BECMG 1917/1919 29004KT CAVOK BECMG 2007/2009 10005KT FEW050 BECMG 2010/2012 24005KT